createdAt,value
2022-10-05T00:00:22.605Z,2.25
2022-10-05T00:02:52.427Z,2.28
2022-10-05T00:05:32.661Z,2.15
2022-10-05T00:08:32.887Z,2.20
2022-10-05T00:11:00.153Z,2.03
2022-10-05T00:13:29.778Z,2.53
2022-10-05T00:16:11.012Z,2.30
2022-10-05T00:18:38.666Z,2.13
2022-10-05T00:21:27.071Z,2.53
2022-10-05T00:23:57.693Z,2.42
2022-10-05T00:26:26.924Z,2.25
2022-10-05T00:28:54.840Z,2.03
2022-10-05T00:31:31.731Z,2.22
2022-10-05T00:33:59.360Z,2.30
2022-10-05T00:36:26.437Z,1.90
2022-10-05T00:38:53.802Z,2.10
2022-10-05T00:41:23.359Z,2.30
2022-10-05T00:44:15.510Z,2.08
2022-10-05T00:46:48.159Z,2.30
2022-10-05T00:49:18.195Z,1.95
2022-10-05T00:51:55.485Z,2.28
2022-10-05T00:54:43.782Z,2.50
2022-10-05T00:57:28.074Z,2.10
2022-10-05T00:59:57.868Z,2.38
2022-10-05T01:02:47.042Z,2.10
2022-10-05T01:05:37.417Z,2.03
2022-10-05T01:08:41.841Z,2.20
2022-10-05T01:11:14.970Z,2.42
2022-10-05T01:13:50.754Z,2.13
2022-10-05T01:16:55.235Z,2.38
2022-10-05T01:19:48.993Z,1.90
2022-10-05T01:22:33.305Z,2.33
2022-10-05T01:25:20.993Z,2.38
2022-10-05T01:28:00.031Z,2.58
2022-10-05T01:30:30.472Z,2.60
2022-10-05T01:33:14.709Z,2.70
2022-10-05T01:35:49.524Z,1.95
2022-10-05T01:38:37.527Z,2.15
2022-10-05T01:41:20.428Z,2.13
2022-10-05T01:43:59.918Z,2.20
2022-10-05T01:46:41.160Z,1.95
2022-10-05T01:49:16.956Z,2.15
2022-10-05T01:51:55.601Z,1.80
2022-10-05T01:54:49.952Z,2.03
2022-10-05T01:57:28.842Z,2.15
2022-10-05T02:00:07.634Z,1.90
2022-10-05T02:02:38.343Z,1.80
2022-10-05T02:05:11.628Z,1.77
2022-10-05T02:08:29.766Z,2.03
2022-10-05T02:11:07.857Z,1.75
2022-10-05T02:13:34.631Z,1.98
2022-10-05T02:16:08.065Z,1.73
2022-10-05T02:18:41.922Z,1.67
2022-10-05T02:21:09.052Z,2.30
2022-10-05T02:23:40.603Z,2.15
2022-10-05T02:26:11.090Z,2.50
2022-10-05T02:28:58.671Z,2.28
2022-10-05T02:31:35.099Z,2.15
2022-10-05T02:34:37.830Z,3.15
2022-10-05T02:37:29.025Z,2.58
2022-10-05T02:40:29.833Z,2.10
2022-10-05T02:43:15.272Z,1.95
2022-10-05T02:45:50.403Z,1.65
2022-10-05T02:48:41.554Z,3.28
2022-10-05T02:51:27.700Z,4.93
2022-10-05T02:54:15.530Z,3.90
2022-10-05T02:57:00.436Z,3.15
2022-10-05T02:59:34.256Z,2.70
2022-10-05T03:02:14.214Z,2.30
2022-10-05T03:05:05.131Z,1.98
2022-10-05T03:07:50.005Z,2.00
2022-10-05T03:10:26.052Z,1.80
2022-10-05T03:13:24.717Z,2.22
2022-10-05T03:16:13.017Z,2.10
2022-10-05T03:19:17.104Z,1.88
2022-10-05T03:21:46.943Z,2.13
2022-10-05T03:24:13.909Z,2.67
2022-10-05T03:26:51.708Z,2.30
2022-10-05T03:29:46.113Z,2.67
2022-10-05T03:32:29.165Z,2.60
2022-10-05T03:35:31.287Z,3.10
2022-10-05T03:40:39.594Z,3.50
2022-10-05T03:43:40.337Z,3.63
2022-10-05T03:46:36.271Z,3.78
2022-10-05T03:49:47.264Z,3.10
2022-10-05T03:52:23.271Z,4.22
2022-10-05T03:55:26.280Z,3.60
2022-10-05T03:57:57.102Z,3.00
2022-10-05T04:00:24.326Z,3.77
2022-10-05T04:03:04.404Z,3.53
2022-10-05T04:05:37.058Z,3.03
2022-10-05T04:08:23.176Z,2.88
2022-10-05T04:10:52.768Z,3.60
2022-10-05T04:13:41.038Z,3.53
2022-10-05T04:16:22.550Z,3.50
2022-10-05T04:19:04.256Z,3.50
2022-10-05T04:24:34.299Z,3.20
2022-10-05T04:27:07.585Z,3.53
2022-10-05T04:29:54.028Z,3.30
2022-10-05T04:32:47.991Z,3.47
2022-10-05T04:35:23.211Z,3.97
2022-10-05T04:38:02.302Z,3.58
2022-10-05T04:40:41.906Z,3.85
2022-10-05T04:43:11.839Z,3.85
2022-10-05T04:45:41.375Z,3.58
2022-10-05T04:48:23.290Z,3.70
2022-10-05T04:50:50.102Z,3.63
2022-10-05T04:53:48.215Z,4.60
2022-10-05T04:56:38.743Z,4.47
2022-10-05T04:59:14.644Z,14.60
2022-10-05T05:01:56.729Z,5.90
2022-10-05T05:04:42.331Z,5.00
2022-10-05T05:07:21.123Z,4.97
2022-10-05T05:10:15.629Z,4.78
2022-10-05T05:12:57.510Z,4.53
2022-10-05T05:15:39.660Z,4.97
2022-10-05T05:19:03.131Z,5.00
2022-10-05T05:21:38.182Z,6.40
2022-10-05T05:24:05.154Z,5.93
2022-10-05T05:26:53.487Z,5.75
2022-10-05T05:30:01.797Z,6.35
2022-10-05T05:33:05.775Z,8.52
2022-10-05T05:36:01.419Z,5.93
2022-10-05T05:38:45.689Z,6.40
2022-10-05T05:41:22.656Z,6.47
2022-10-05T05:43:55.136Z,7.15
2022-10-05T05:46:38.868Z,7.03
2022-10-05T05:49:38.920Z,7.20
2022-10-05T05:52:18.148Z,6.85
2022-10-05T05:54:53.374Z,8.65
2022-10-05T05:58:00.646Z,7.60
2022-10-05T06:00:34.664Z,8.95
2022-10-05T06:03:14.294Z,7.65
2022-10-05T06:05:49.959Z,7.85
2022-10-05T06:08:25.013Z,12.20
2022-10-05T06:11:00.149Z,8.65
2022-10-05T06:13:33.522Z,8.15
2022-10-05T06:16:23.416Z,8.55
2022-10-05T06:19:10.452Z,7.72
2022-10-05T06:21:45.532Z,9.38
2022-10-05T06:25:06.781Z,9.15
2022-10-05T06:27:55.848Z,8.85
2022-10-05T06:30:23.150Z,8.45
2022-10-05T06:33:18.642Z,8.30
2022-10-05T06:35:52.635Z,8.43
2022-10-05T06:38:35.986Z,8.82
2022-10-05T06:41:09.283Z,8.90
2022-10-05T06:43:59.315Z,8.00
2022-10-05T06:46:36.612Z,8.20
2022-10-05T06:49:20.634Z,9.90
2022-10-05T06:52:06.860Z,9.07
2022-10-05T06:54:49.713Z,9.88
2022-10-05T06:57:47.241Z,12.23
2022-10-05T07:00:40.902Z,8.77
2022-10-05T07:03:38.644Z,9.77
2022-10-05T07:06:28.161Z,8.95
2022-10-05T07:09:04.153Z,10.13
2022-10-05T07:11:37.049Z,9.93
2022-10-05T07:14:12.921Z,8.82
2022-10-05T07:16:45.804Z,11.52
2022-10-05T07:19:38.625Z,9.40
2022-10-05T07:22:31.812Z,9.57
2022-10-05T07:25:16.493Z,10.23
2022-10-05T07:27:58.183Z,9.52
2022-10-05T07:33:09.408Z,10.98
2022-10-05T07:36:13.924Z,10.35
2022-10-05T07:38:53.984Z,9.82
2022-10-05T07:41:48.304Z,10.30
2022-10-05T07:44:43.859Z,9.50
2022-10-05T07:47:19.496Z,9.10
2022-10-05T07:49:59.653Z,9.82
2022-10-05T07:52:34.632Z,10.35
2022-10-05T07:55:28.062Z,10.40
2022-10-05T07:58:20.800Z,9.85
2022-10-05T08:01:06.582Z,10.27
2022-10-05T08:04:06.243Z,11.20
2022-10-05T08:06:51.276Z,9.77
2022-10-05T08:09:26.269Z,10.68
2022-10-05T08:12:06.605Z,11.05
2022-10-05T08:14:46.603Z,10.73
2022-10-05T08:17:33.182Z,10.07
2022-10-05T08:20:26.104Z,9.57
2022-10-05T08:23:01.195Z,9.25
2022-10-05T08:25:45.394Z,10.25
2022-10-05T08:28:23.703Z,15.20
2022-10-05T08:31:19.081Z,16.15
2022-10-05T08:33:54.813Z,11.88
2022-10-05T08:36:49.251Z,8.98
2022-10-05T08:39:21.512Z,10.25
2022-10-05T08:42:15.839Z,8.88
2022-10-05T08:45:12.102Z,8.70
2022-10-05T08:48:16.948Z,9.70
2022-10-05T08:51:03.977Z,10.10
2022-10-05T08:54:09.886Z,12.07
2022-10-05T08:56:36.622Z,10.15
2022-10-05T08:59:24.879Z,11.25
2022-10-05T09:02:00.537Z,10.98
2022-10-05T09:04:58.191Z,11.60
2022-10-05T09:07:44.347Z,12.65
2022-10-05T09:10:35.996Z,14.27
2022-10-05T09:13:13.805Z,15.27
2022-10-05T09:15:57.451Z,12.40
2022-10-05T09:18:57.129Z,11.18
2022-10-05T09:21:56.828Z,12.55
2022-10-05T09:24:39.274Z,12.38
2022-10-05T09:27:15.499Z,11.48
2022-10-05T09:30:03.929Z,10.75
2022-10-05T09:32:49.391Z,11.23
2022-10-05T09:35:34.961Z,10.10
2022-10-05T09:38:20.889Z,13.60
2022-10-05T09:41:21.915Z,14.02
2022-10-05T09:43:54.834Z,11.73
2022-10-05T09:47:02.616Z,12.23
2022-10-05T09:49:29.405Z,11.13
2022-10-05T09:52:26.133Z,14.65
2022-10-05T09:54:57.010Z,12.93
2022-10-05T09:57:56.122Z,15.85
2022-10-05T10:00:37.151Z,12.77
2022-10-05T10:03:25.422Z,11.60
2022-10-05T10:06:12.901Z,15.23
2022-10-05T10:09:17.696Z,14.15
2022-10-05T10:12:22.643Z,10.88
2022-10-05T10:15:24.071Z,10.07
2022-10-05T10:17:59.653Z,11.15
2022-10-05T10:20:40.917Z,10.45
2022-10-05T10:23:12.725Z,10.45
2022-10-05T10:25:48.371Z,11.60
2022-10-05T10:28:24.328Z,12.02
2022-10-05T10:31:18.552Z,9.63
2022-10-05T10:34:06.927Z,9.52
2022-10-05T10:37:01.665Z,9.30
2022-10-05T10:40:05.856Z,8.70
2022-10-05T10:42:51.869Z,8.48
2022-10-05T10:45:28.851Z,9.52
2022-10-05T10:48:11.348Z,8.52
2022-10-05T10:51:12.610Z,9.00
2022-10-05T10:53:45.425Z,9.38
2022-10-05T10:56:15.556Z,9.50
2022-10-05T10:58:57.421Z,10.35
2022-10-05T11:01:35.306Z,8.40
2022-10-05T11:04:37.419Z,9.38
2022-10-05T11:07:31.942Z,8.95
2022-10-05T11:10:26.295Z,12.02
2022-10-05T11:13:24.966Z,9.80
2022-10-05T11:16:01.134Z,10.25
2022-10-05T11:18:55.799Z,11.20
2022-10-05T11:22:07.504Z,9.95
2022-10-05T11:24:50.211Z,12.48
2022-10-05T11:27:48.388Z,17.42
2022-10-05T11:30:25.744Z,10.65
2022-10-05T11:33:19.590Z,9.00
2022-10-05T11:36:18.374Z,10.10
2022-10-05T11:39:18.785Z,13.25
2022-10-05T11:42:15.619Z,10.75
2022-10-05T11:45:14.463Z,9.50
2022-10-05T11:48:14.804Z,10.45
2022-10-05T11:51:10.596Z,9.02
2022-10-05T11:53:41.456Z,9.30
2022-10-05T11:56:23.969Z,9.52
2022-10-05T11:59:01.799Z,9.77
2022-10-05T12:01:41.629Z,11.15
2022-10-05T12:04:26.182Z,10.23
2022-10-05T12:07:42.443Z,12.57
2022-10-05T12:10:32.745Z,10.45
2022-10-05T12:13:08.826Z,8.98
2022-10-05T12:15:44.825Z,10.77
2022-10-05T12:18:18.151Z,12.65
2022-10-05T12:20:56.226Z,9.80
2022-10-05T12:23:33.577Z,9.18
2022-10-05T12:26:15.692Z,9.70
2022-10-05T12:29:01.248Z,9.60
2022-10-05T12:32:12.911Z,9.45
2022-10-05T12:35:04.994Z,9.10
2022-10-05T12:37:57.655Z,9.50
2022-10-05T12:40:32.976Z,10.80
2022-10-05T12:43:21.844Z,10.20
2022-10-05T12:46:12.232Z,9.85
2022-10-05T12:49:26.976Z,9.70
2022-10-05T12:52:02.077Z,10.38
2022-10-05T12:54:46.913Z,11.05
2022-10-05T12:57:42.819Z,11.70
2022-10-05T13:00:13.932Z,10.73
2022-10-05T13:02:51.063Z,13.30
2022-10-05T13:05:35.864Z,10.30
2022-10-05T13:08:14.521Z,10.32
2022-10-05T13:10:52.876Z,10.73
2022-10-05T13:13:34.274Z,11.35
2022-10-05T13:16:50.224Z,13.18
2022-10-05T13:19:46.684Z,13.63
2022-10-05T13:22:16.154Z,16.25
2022-10-05T13:25:15.043Z,13.55
2022-10-05T13:27:55.155Z,12.43
2022-10-05T13:30:22.574Z,12.75
2022-10-05T13:33:05.396Z,13.55
2022-10-05T13:35:51.318Z,12.30
2022-10-05T13:38:36.383Z,10.75
2022-10-05T13:41:09.639Z,12.38
2022-10-05T13:43:39.977Z,13.23
2022-10-05T13:46:45.160Z,13.55
2022-10-05T13:49:38.776Z,21.02
2022-10-05T13:52:08.919Z,14.40
2022-10-05T13:54:52.647Z,11.98
2022-10-05T13:57:34.406Z,12.35
2022-10-05T14:00:26.268Z,12.98
2022-10-05T14:02:56.775Z,11.50
2022-10-05T14:05:27.759Z,13.30
2022-10-05T14:08:02.223Z,13.02
2022-10-05T14:10:41.920Z,12.50
2022-10-05T14:13:20.587Z,11.70
2022-10-05T14:16:20.409Z,12.60
2022-10-05T14:19:10.995Z,11.45
2022-10-05T14:22:07.900Z,11.90
2022-10-05T14:24:44.911Z,12.38
2022-10-05T14:27:27.610Z,11.15
2022-10-05T14:30:12.538Z,10.93
2022-10-05T14:32:51.484Z,10.80
2022-10-05T14:35:22.132Z,11.13
2022-10-05T14:37:59.783Z,10.93
2022-10-05T14:40:34.004Z,10.48
2022-10-05T14:43:21.202Z,11.75
2022-10-05T14:46:05.178Z,12.18
2022-10-05T14:48:42.835Z,12.02
2022-10-05T14:51:12.921Z,11.75
2022-10-05T14:53:56.760Z,10.82
2022-10-05T14:56:53.159Z,11.52
2022-10-05T14:59:23.183Z,11.23
2022-10-05T15:01:54.649Z,11.48
2022-10-05T15:07:05.618Z,10.90
2022-10-05T15:10:08.947Z,10.98
2022-10-05T15:12:40.623Z,12.20
2022-10-05T15:15:25.928Z,13.25
2022-10-05T15:18:34.979Z,13.50
2022-10-05T15:21:17.145Z,13.40
2022-10-05T15:23:52.966Z,13.27
2022-10-05T15:26:22.853Z,12.05
2022-10-05T15:29:01.936Z,11.07
2022-10-05T15:31:50.811Z,11.55
2022-10-05T15:34:31.293Z,11.35
2022-10-05T15:37:04.394Z,11.18
2022-10-05T15:39:35.907Z,12.65
2022-10-05T15:44:54.104Z,14.13
2022-10-05T15:47:52.158Z,16.30
2022-10-05T15:50:26.698Z,14.93
2022-10-05T15:53:02.548Z,12.27
2022-10-05T15:55:42.262Z,13.27
2022-10-05T15:58:34.693Z,14.50
2022-10-05T16:01:12.409Z,13.30
2022-10-05T16:04:06.005Z,22.20
2022-10-05T16:07:01.072Z,13.93
2022-10-05T16:09:58.812Z,13.48
2022-10-05T16:12:51.513Z,14.48
2022-10-05T16:15:30.149Z,14.15
2022-10-05T16:18:30.298Z,17.92
2022-10-05T16:21:05.419Z,14.55
2022-10-05T16:23:47.455Z,14.43
2022-10-05T16:26:33.173Z,14.45
2022-10-05T16:29:24.773Z,12.85
2022-10-05T16:32:02.632Z,12.55
2022-10-05T16:34:38.111Z,12.27
2022-10-05T16:37:34.780Z,12.82
2022-10-05T16:40:28.561Z,11.90
2022-10-05T16:43:20.136Z,12.38
2022-10-05T16:45:55.735Z,12.60
2022-10-05T16:48:35.038Z,12.80
2022-10-05T16:51:26.722Z,14.82
2022-10-05T16:54:11.608Z,16.13
2022-10-05T16:56:44.860Z,12.50
2022-10-05T16:59:36.076Z,15.60
2022-10-05T17:02:09.176Z,21.80
2022-10-05T17:04:46.332Z,19.48
2022-10-05T17:07:41.326Z,17.92
2022-10-05T17:10:38.023Z,15.85
2022-10-05T17:13:29.846Z,14.05
2022-10-05T17:21:34.818Z,12.57
2022-10-05T17:24:15.593Z,11.98
2022-10-05T17:27:17.889Z,13.03
2022-10-05T17:29:53.952Z,11.68
2022-10-05T17:32:39.657Z,15.88
2022-10-05T17:35:20.669Z,13.60
2022-10-05T17:38:14.504Z,14.25
2022-10-05T17:41:01.092Z,15.00
2022-10-05T17:43:30.779Z,12.23
2022-10-05T17:46:00.641Z,11.90
2022-10-05T17:48:44.676Z,11.60
2022-10-05T17:51:53.337Z,14.15
2022-10-05T17:54:43.152Z,16.15
2022-10-05T17:57:09.949Z,12.80
2022-10-05T17:59:52.341Z,12.90
2022-10-05T18:02:40.649Z,12.32
2022-10-05T18:05:14.561Z,12.93
2022-10-05T18:07:48.745Z,12.48
2022-10-05T18:10:24.635Z,12.82
2022-10-05T18:13:00.258Z,17.52
2022-10-05T18:15:27.016Z,23.05
2022-10-05T18:18:33.122Z,15.70
2022-10-05T18:21:17.821Z,13.57
2022-10-05T18:23:59.402Z,13.32
2022-10-05T18:26:47.854Z,14.27
2022-10-05T18:29:49.713Z,13.63
2022-10-05T18:35:02.407Z,13.88
2022-10-05T18:37:50.976Z,17.80
2022-10-05T18:40:21.337Z,16.42
2022-10-05T18:42:56.157Z,15.93
2022-10-05T18:45:37.983Z,15.60
2022-10-05T18:48:29.828Z,14.48
2022-10-05T18:51:28.504Z,14.45
2022-10-05T18:54:33.067Z,14.25
2022-10-05T18:57:24.557Z,13.27
2022-10-05T19:00:03.377Z,15.25
2022-10-05T19:02:52.580Z,18.20
2022-10-05T19:05:48.723Z,17.70
2022-10-05T19:08:40.681Z,22.88
2022-10-05T19:11:25.734Z,17.58
2022-10-05T19:14:17.804Z,18.02
2022-10-05T19:17:19.766Z,14.48
2022-10-05T19:22:51.437Z,14.55
2022-10-05T19:25:50.442Z,14.90
2022-10-05T19:28:20.582Z,17.17
2022-10-05T19:31:13.570Z,20.90
2022-10-05T19:34:33.275Z,14.95
2022-10-05T19:37:05.942Z,15.40
2022-10-05T19:39:36.193Z,15.43
2022-10-05T19:42:47.174Z,14.40
2022-10-05T19:45:26.013Z,15.00
2022-10-05T19:48:23.569Z,15.13
2022-10-05T19:51:01.369Z,15.73
2022-10-05T19:53:37.134Z,15.38
2022-10-05T19:56:34.202Z,16.95
2022-10-05T19:59:18.513Z,16.33
2022-10-05T20:01:51.786Z,16.33
2022-10-05T20:04:36.641Z,16.20
2022-10-05T20:07:04.958Z,18.33
2022-10-05T20:09:50.787Z,16.60
2022-10-05T20:12:17.606Z,16.20
2022-10-05T20:15:04.353Z,16.25
2022-10-05T20:17:50.002Z,15.40
2022-10-05T20:20:47.119Z,16.90
2022-10-05T20:23:24.276Z,17.20
2022-10-05T20:26:10.823Z,15.43
2022-10-05T20:28:37.870Z,15.65
2022-10-05T20:31:07.734Z,16.55
2022-10-05T20:33:34.951Z,18.52
2022-10-05T20:36:03.753Z,29.40
2022-10-05T20:38:31.803Z,43.58
2022-10-05T20:40:58.754Z,23.42
2022-10-05T20:43:25.583Z,16.98
2022-10-05T20:45:53.803Z,15.73
2022-10-05T20:48:20.713Z,15.77
2022-10-05T20:50:47.601Z,16.35
2022-10-05T20:53:14.432Z,15.60
2022-10-05T20:55:41.277Z,16.10
2022-10-05T20:58:09.095Z,15.30
2022-10-05T21:00:54.345Z,15.52
2022-10-05T21:03:21.208Z,15.63
2022-10-05T21:05:48.045Z,14.73
2022-10-05T21:08:15.258Z,14.85
2022-10-05T21:10:42.084Z,14.38
2022-10-05T21:13:09.164Z,14.52
2022-10-05T21:15:36.093Z,14.25
2022-10-05T21:18:02.992Z,13.77
2022-10-05T21:20:29.867Z,12.65
2022-10-05T21:22:56.726Z,16.42
2022-10-05T21:25:23.598Z,16.45
2022-10-05T21:27:50.460Z,13.80
2022-10-05T21:30:17.411Z,12.85
2022-10-05T21:32:44.894Z,11.93
2022-10-05T21:35:11.940Z,13.05
2022-10-05T21:37:38.808Z,11.98
2022-10-05T21:40:06.063Z,12.00
2022-10-05T21:42:33.068Z,12.68
2022-10-05T21:44:59.900Z,12.02
2022-10-05T21:47:26.844Z,11.93
2022-10-05T21:49:53.967Z,11.95
2022-10-05T21:52:21.379Z,11.63
2022-10-05T21:54:48.378Z,11.90
2022-10-05T21:57:15.467Z,12.57
2022-10-05T21:59:43.007Z,10.65
2022-10-05T22:02:09.986Z,11.93
2022-10-05T22:04:36.852Z,12.07
2022-10-05T22:07:18.465Z,10.80
2022-10-05T22:12:13.846Z,10.88
2022-10-05T22:14:41.159Z,10.13
2022-10-05T22:17:27.287Z,10.40
2022-10-05T22:19:55.806Z,10.00
2022-10-05T22:22:22.731Z,10.48
2022-10-05T22:24:50.003Z,19.05
2022-10-05T22:27:17.167Z,18.73
2022-10-05T22:29:44.252Z,12.02
2022-10-05T22:32:11.749Z,11.60
2022-10-05T22:34:38.598Z,13.80
2022-10-05T22:37:06.760Z,14.10
2022-10-05T22:39:33.666Z,11.00
2022-10-05T22:42:00.575Z,10.55
2022-10-05T22:44:27.946Z,10.68
2022-10-05T22:46:54.751Z,13.52
2022-10-05T22:49:21.565Z,12.35
2022-10-05T22:51:49.287Z,14.98
2022-10-05T22:54:16.127Z,11.32
2022-10-05T22:56:43.617Z,10.35
2022-10-05T22:59:10.783Z,11.13
2022-10-05T23:01:37.643Z,10.73
2022-10-05T23:04:04.609Z,11.05
2022-10-05T23:06:31.619Z,11.20
2022-10-05T23:08:58.468Z,11.40
2022-10-05T23:11:27.747Z,11.73
2022-10-05T23:13:59.940Z,10.77
2022-10-05T23:16:28.193Z,10.98
2022-10-05T23:18:56.013Z,12.07
2022-10-05T23:21:24.434Z,11.60
2022-10-05T23:23:51.557Z,10.90
2022-10-05T23:26:21.111Z,11.35
2022-10-05T23:28:49.159Z,11.05
2022-10-05T23:31:21.484Z,11.02
2022-10-05T23:33:49.117Z,10.93
2022-10-05T23:36:21.810Z,11.75
2022-10-05T23:38:49.026Z,10.77
2022-10-05T23:41:17.342Z,11.50
2022-10-05T23:43:44.258Z,12.25
2022-10-05T23:46:11.749Z,12.07
2022-10-05T23:48:38.891Z,11.75
2022-10-05T23:51:07.493Z,10.43
2022-10-05T23:53:34.770Z,11.20
2022-10-05T23:56:01.961Z,11.70
2022-10-05T23:58:29.888Z,12.52
